Terminal Aerodrome Forecast
Issued by NWS

Home | Current Version | Previous Version | Text Only | Print | Product List | Glossary On
Versions: 1 2 3 4 5 6 7 8 9 10 11 12 13 14
000
FTUS45 KRIW 301700
TAFBPI
TAF
KBPI 301720Z 3018/3118 VRB05KT P6SM VCSH SCT040 OVC070
     FM301900 15008KT P6SM VCSH SCT060 BKN080
     FM310200 VRB06KT P6SM FEW080 SCT150
     FM311500 VRB06KT P6SM SCT150=

USA.gov is the U.S. government's official web portal to all federal, state and local government web resources and services.